Time;durP1;ratioP1;P1;durP2;ratioP2;P2;SDS_P1;SDS_P2;PMS_P1;PMS_P2;Temp;Humidity;BMP_temperature;BMP_pressure;BME280_temperature;BME280_humidity;BME280_pressure;Samples;Min_cycle;Max_cycle;Signal;HPM_P1;HPM_P2
2023/12/20 00:00:04;;;;;;;0.85;0.85;;;5.90;99.90;;;;;;6287036;22;20190;-86
2023/12/20 00:02:35;;;;;;;2.08;1.83;;;5.90;99.90;;;;;;6286599;22;20205;-86
2023/12/20 00:05:14;;;;;;;1.00;1.00;;;5.90;99.90;;;;;;6314614;22;20166;-88
2023/12/20 00:07:45;;;;;;;0.85;0.85;;;5.90;99.90;;;;;;6288169;22;20667;-89
2023/12/20 00:10:13;;;;;;;1.05;1.05;;;5.90;99.90;;;;;;6313215;22;20491;-87
2023/12/20 00:12:41;;;;;;;3.78;3.40;;;6.00;99.90;;;;;;6287494;22;20177;-88
2023/12/20 00:15:11;;;;;;;4.78;3.03;;;5.90;99.90;;;;;;6314069;22;20174;-90
2023/12/20 00:17:40;;;;;;;2.90;2.20;;;5.90;99.90;;;;;;6321122;22;20460;-88
2023/12/20 00:20:09;;;;;;;0.68;0.68;;;5.90;99.90;;;;;;6330018;22;20210;-84
2023/12/20 00:22:37;;;;;;;1.90;1.80;;;5.90;99.90;;;;;;6330523;22;20218;-86
2023/12/20 00:25:05;;;;;;;0.73;0.73;;;6.10;99.90;;;;;;6300715;22;20189;-88
2023/12/20 00:27:32;;;;;;;2.03;1.95;;;5.90;99.90;;;;;;6290124;22;20180;-86
2023/12/20 00:30:00;;;;;;;2.13;2.03;;;5.90;99.90;;;;;;6288348;22;20206;-87
2023/12/20 00:32:56;;;;;;;3.13;2.92;;;5.50;99.90;;;;;;6315794;22;20189;-87
2023/12/20 00:35:24;;;;;;;1.92;1.83;;;5.80;99.90;;;;;;6288650;22;20167;-86
2023/12/20 00:38:00;;;;;;;1.45;1.35;;;5.80;99.90;;;;;;6313942;22;20184;-86
2023/12/20 00:40:35;;;;;;;0.75;0.75;;;5.80;99.90;;;;;;6263035;22;20170;-87
2023/12/20 00:43:02;;;;;;;0.50;0.50;;;5.80;99.90;;;;;;6315298;22;20158;-86
2023/12/20 00:45:33;;;;;;;2.35;0.85;;;5.80;99.90;;;;;;6315165;22;20490;-86
2023/12/20 00:48:03;;;;;;;1.85;1.75;;;5.80;99.90;;;;;;6288530;22;20170;-85
2023/12/20 00:50:31;;;;;;;2.22;2.03;;;5.70;99.90;;;;;;6314987;22;20238;-86
2023/12/20 00:52:59;;;;;;;0.90;0.90;;;5.80;99.90;;;;;;6326658;22;20174;-87
2023/12/20 00:55:33;;;;;;;3.97;3.67;;;5.70;99.90;;;;;;6325500;22;20185;-89
2023/12/20 00:58:06;;;;;;;2.00;1.90;;;5.70;99.90;;;;;;6306457;22;20166;-89
2023/12/20 01:00:53;;;;;;;1.98;1.88;;;5.70;99.90;;;;;;6276339;22;20230;-89
2023/12/20 01:03:40;;;;;;;1.00;0.98;;;5.70;99.90;;;;;;6269184;22;20170;-87
2023/12/20 01:06:41;;;;;;;0.98;0.95;;;5.70;99.90;;;;;;6289704;22;20192;-90
2023/12/20 01:09:36;;;;;;;2.20;2.05;;;5.60;99.90;;;;;;6289087;22;20343;-88
2023/12/20 01:12:39;;;;;;;3.05;1.92;;;5.70;99.90;;;;;;6234691;23;20187;-89
2023/12/20 01:20:00;;;;;;;1.65;1.65;;;5.70;99.90;;;;;;6302159;22;20236;-90
2023/12/20 01:26:34;;;;;;;2.08;1.98;;;5.70;99.90;;;;;;6207662;23;20164;-92
2023/12/20 01:29:10;;;;;;;0.93;0.93;;;5.60;99.90;;;;;;6230207;23;20172;-87
2023/12/20 01:31:49;;;;;;;4.95;3.08;;;5.50;99.90;;;;;;6321307;22;20221;-84
2023/12/20 01:34:24;;;;;;;0.95;0.95;;;5.60;99.90;;;;;;6299805;22;20190;-85
2023/12/20 01:36:53;;;;;;;1.50;1.42;;;5.40;99.90;;;;;;6305159;22;20224;-86
2023/12/20 01:39:21;;;;;;;1.20;1.20;;;5.60;99.90;;;;;;6308568;22;20204;-87
2023/12/20 01:42:10;;;;;;;3.78;3.38;;;5.60;99.90;;;;;;6311494;22;20158;-86
2023/12/20 01:44:51;;;;;;;1.30;1.30;;;5.60;99.90;;;;;;6309425;22;20166;-88
2023/12/20 01:47:50;;;;;;;;;;;;;;;;;;;;;
2023/12/20 01:50:40;;;;;;;1.48;1.38;;;5.60;99.90;;;;;;6318811;22;20620;-87
2023/12/20 01:53:21;;;;;;;0.60;0.60;;;5.60;99.90;;;;;;6268295;22;20765;-87
2023/12/20 01:56:05;;;;;;;2.55;2.40;;;5.70;99.90;;;;;;6260005;22;20174;-86
2023/12/20 01:59:08;;;;;;;1.10;0.93;;;5.60;99.90;;;;;;6295918;22;20194;-88
2023/12/20 02:01:50;;;;;;;2.90;2.70;;;5.60;99.90;;;;;;6276991;22;20253;-89
2023/12/20 02:04:22;;;;;;;0.90;0.90;;;5.60;99.90;;;;;;6291287;22;20174;-88
2023/12/20 02:07:09;;;;;;;2.38;1.98;;;5.60;99.90;;;;;;6318650;22;20178;-88
2023/12/20 02:09:42;;;;;;;1.25;1.25;;;5.60;99.90;;;;;;6319121;22;20174;-88
2023/12/20 02:12:56;;;;;;;1.25;1.20;;;5.70;99.90;;;;;;6249253;22;20188;-87
2023/12/20 02:15:52;;;;;;;0.80;0.80;;;5.70;99.90;;;;;;6292734;22;20274;-89
2023/12/20 02:18:19;;;;;;;2.38;2.17;;;5.70;99.90;;;;;;6318743;22;20212;-88
2023/12/20 02:20:59;;;;;;;1.80;1.70;;;5.90;99.90;;;;;;6318533;22;20181;-87
2023/12/20 02:23:32;;;;;;;1.75;1.65;;;5.70;99.90;;;;;;6292002;22;20174;-87
2023/12/20 02:26:05;;;;;;;2.67;2.50;;;5.70;99.90;;;;;;6297227;22;20197;-86
2023/12/20 02:28:33;;;;;;;1.05;1.02;;;5.70;99.90;;;;;;6332541;22;20167;-88
2023/12/20 02:31:19;;;;;;;0.93;0.93;;;5.70;99.90;;;;;;6308664;22;20158;-86
2023/12/20 02:33:50;;;;;;;3.35;2.88;;;5.70;99.90;;;;;;6306159;22;20181;-88
2023/12/20 02:36:17;;;;;;;0.65;0.65;;;5.70;99.90;;;;;;6332283;22;20250;-89
2023/12/20 02:38:59;;;;;;;1.92;1.77;;;5.70;99.90;;;;;;6333176;22;20186;-87
2023/12/20 02:41:41;;;;;;;1.70;1.60;;;5.70;99.90;;;;;;6308583;22;20150;-88
2023/12/20 02:44:38;;;;;;;0.95;0.95;;;5.70;99.90;;;;;;6284968;22;20176;-89
2023/12/20 02:47:16;;;;;;;0.70;0.70;;;5.80;99.90;;;;;;6307350;22;20174;-93
2023/12/20 02:49:53;;;;;;;0.55;0.55;;;5.60;99.90;;;;;;6311042;22;20165;-86
2023/12/20 02:52:23;;;;;;;0.40;0.40;;;5.70;99.90;;;;;;6306482;22;20174;-87
2023/12/20 02:54:59;;;;;;;0.85;0.85;;;5.70;99.90;;;;;;6310607;22;20150;-84
2023/12/20 02:57:46;;;;;;;;;;;;;;;;;;;;;
2023/12/20 03:00:35;;;;;;;2.58;2.03;;;5.80;99.90;;;;;;6247034;22;20261;-87
2023/12/20 03:03:03;;;;;;;1.05;1.05;;;5.60;99.90;;;;;;6334907;22;20181;-85
2023/12/20 03:05:31;;;;;;;0.90;0.90;;;5.60;99.90;;;;;;6308380;22;20174;-89
2023/12/20 03:08:04;;;;;;;0.40;0.40;;;5.60;99.90;;;;;;6286209;22;20159;-86
2023/12/20 03:10:38;;;;;;;1.60;1.50;;;5.40;99.90;;;;;;6179743;22;20205;-87
2023/12/20 03:13:19;;;;;;;1.38;1.38;;;5.60;99.90;;;;;;6165356;23;20172;-89
2023/12/20 03:15:48;;;;;;;1.10;1.10;;;5.50;99.90;;;;;;6174654;22;20489;-86
2023/12/20 03:18:34;;;;;;;0.40;0.40;;;5.50;99.90;;;;;;6163440;23;20173;-87
2023/12/20 03:21:02;;;;;;;0.80;0.80;;;5.50;99.90;;;;;;6138752;23;20166;-88
2023/12/20 03:23:39;;;;;;;1.10;0.98;;;5.50;99.90;;;;;;6164587;22;20177;-87
2023/12/20 03:29:23;;;;;;;1.83;1.73;;;5.50;99.90;;;;;;6163373;22;20258;-90
2023/12/20 03:31:53;;;;;;;1.02;1.02;;;5.50;99.90;;;;;;6290115;22;20189;-89
2023/12/20 03:34:22;;;;;;;1.63;1.52;;;5.40;99.90;;;;;;6272452;22;20233;-90
2023/12/20 03:37:00;;;;;;;0.40;0.40;;;5.40;99.90;;;;;;6322028;22;20178;-89
2023/12/20 03:39:38;;;;;;;0.50;0.50;;;5.50;99.90;;;;;;6325430;22;20201;-91
2023/12/20 03:44:50;;;;;;;0.50;0.50;;;5.40;99.90;;;;;;6249338;22;20197;-86
2023/12/20 03:47:42;;;;;;;;;;;;;;;;;;;;;
2023/12/20 03:50:14;;;;;;;0.75;0.75;;;5.30;99.90;;;;;;6322346;22;20162;-88
2023/12/20 03:52:47;;;;;;;0.40;0.40;;;5.20;99.90;;;;;;6297388;22;20171;-89
2023/12/20 03:55:21;;;;;;;0.30;0.30;;;5.30;99.90;;;;;;6295326;22;20182;-90
2023/12/20 03:58:00;;;;;;;0.40;0.40;;;5.30;99.90;;;;;;6318170;22;20162;-90
2023/12/20 04:00:31;;;;;;;0.75;0.63;;;5.30;99.90;;;;;;6322527;22;20190;-89
2023/12/20 04:03:07;;;;;;;0.50;0.50;;;5.20;99.90;;;;;;6295099;22;20208;-91
2023/12/20 04:06:00;;;;;;;1.23;1.20;;;5.20;99.90;;;;;;6291414;22;20193;-91
2023/12/20 04:08:35;;;;;;;0.40;0.40;;;5.20;99.90;;;;;;6293309;22;20463;-87
2023/12/20 04:11:38;;;;;;;0.50;0.50;;;5.20;99.90;;;;;;6296450;22;20478;-87
2023/12/20 04:14:27;;;;;;;0.30;0.30;;;5.10;99.90;;;;;;6319883;22;20178;-87
2023/12/20 04:16:59;;;;;;;0.40;0.40;;;5.10;99.90;;;;;;6295087;22;20261;-90
2023/12/20 04:20:05;;;;;;;0.47;0.47;;;5.10;99.90;;;;;;6329345;22;20257;-91
2023/12/20 04:25:53;;;;;;;0.60;0.60;;;5.10;99.90;;;;;;6333818;22;20178;-86
2023/12/20 04:28:22;;;;;;;0.40;0.40;;;5.30;99.90;;;;;;6332676;22;20166;-87
2023/12/20 04:31:09;;;;;;;1.30;1.08;;;5.10;99.90;;;;;;6278358;22;20201;-85
2023/12/20 04:33:45;;;;;;;0.50;0.50;;;5.70;99.90;;;;;;6309254;22;20170;-85
2023/12/20 04:36:26;;;;;;;2.85;1.35;;;5.10;99.90;;;;;;6329519;22;20233;-90
2023/12/20 04:39:07;;;;;;;0.40;0.40;;;5.00;99.90;;;;;;6302136;22;20166;-88
2023/12/20 04:41:47;;;;;;;0.38;0.38;;;5.00;99.90;;;;;;6326716;22;20193;-89
2023/12/20 04:47:18;;;;;;;0.40;0.40;;;5.00;99.90;;;;;;6220509;22;20211;-89
2023/12/20 04:50:05;;;;;;;;;;;;;;;;;;;;;
2023/12/20 04:52:49;;;;;;;0.40;0.40;;;4.90;99.90;;;;;;6320432;22;20174;-89
2023/12/20 04:55:21;;;;;;;0.40;0.40;;;4.90;99.90;;;;;;6282501;22;20182;-87
2023/12/20 04:57:57;;;;;;;0.40;0.40;;;5.10;99.90;;;;;;6300391;22;20200;-88
2023/12/20 05:00:31;;;;;;;0.30;0.30;;;4.90;99.90;;;;;;6315731;22;20540;-88
2023/12/20 05:03:10;;;;;;;0.70;0.70;;;4.90;99.90;;;;;;6318316;22;20215;-89
2023/12/20 05:06:00;;;;;;;1.95;1.85;;;4.90;99.90;;;;;;6302759;22;20162;-87
2023/12/20 05:08:28;;;;;;;0.40;0.40;;;4.90;99.90;;;;;;6332154;22;20169;-86
2023/12/20 05:11:06;;;;;;;0.57;0.57;;;4.90;99.90;;;;;;6334897;22;20197;-89
2023/12/20 05:16:24;;;;;;;;;;;;;;;;;;;;;
2023/12/20 05:19:08;;;;;;;1.27;1.17;;;4.90;99.90;;;;;;6322251;22;20210;-92
2023/12/20 05:24:30;;;;;;;;;;;;;;;;;;;;;
2023/12/20 05:38:26;;;;;;;;;;;;;;;;;;;;;
2023/12/20 05:41:07;;;;;;;0.60;0.60;;;4.80;99.90;;;;;;6264887;22;20206;-90
2023/12/20 05:44:08;;;;;;;0.40;0.40;;;4.80;99.90;;;;;;6254159;22;20258;-92
2023/12/20 05:52:09;;;;;;;0.70;0.70;;;4.80;99.90;;;;;;6186446;22;20209;-92
2023/12/20 05:58:09;;;;;;;;;;;;;;;;;;;;;
2023/12/20 06:01:17;;;;;;;0.77;0.77;;;4.90;99.90;;;;;;6119730;23;20217;-88
2023/12/20 06:07:52;;;;;;;0.50;0.50;;;5.00;99.90;;;;;;6098739;22;20381;-82
2023/12/20 06:12:53;;;;;;;0.40;0.40;;;4.80;99.90;;;;;;6221070;22;20205;-89
2023/12/20 06:26:00;;;;;;;0.52;0.52;;;4.80;99.90;;;;;;6240517;22;20194;-86
2023/12/20 06:28:40;;;;;;;0.50;0.50;;;4.80;99.90;;;;;;6302049;22;20197;-86
2023/12/20 06:42:21;;;;;;;0.57;0.57;;;4.80;99.90;;;;;;6304434;22;20201;-86
2023/12/20 06:44:54;;;;;;;0.40;0.40;;;5.00;99.90;;;;;;6285621;22;20531;-88
2023/12/20 06:53:06;;;;;;;0.30;0.30;;;4.80;99.90;;;;;;6170091;22;20175;-87
2023/12/20 06:55:48;;;;;;;0.65;0.65;;;4.80;99.90;;;;;;6156492;22;20193;-87
2023/12/20 06:58:27;;;;;;;0.40;0.40;;;4.80;99.90;;;;;;6298569;22;20182;-88
2023/12/20 07:03:43;;;;;;;0.40;0.40;;;4.80;99.90;;;;;;6310137;22;20261;-86
2023/12/20 07:08:47;;;;;;;0.85;0.85;;;4.80;99.90;;;;;;6220279;22;20204;-88
2023/12/20 07:11:29;;;;;;;1.05;1.05;;;4.80;99.90;;;;;;6259363;22;20427;-90
2023/12/20 07:19:51;;;;;;;1.05;1.05;;;4.70;99.90;;;;;;6323391;22;20356;-90
2023/12/20 07:47:21;;;;;;;0.40;0.40;;;4.80;99.90;;;;;;6189925;22;20186;-82
2023/12/20 07:52:34;;;;;;;0.60;0.60;;;4.80;99.90;;;;;;6257428;22;20193;-89
2023/12/20 07:55:19;;;;;;;0.40;0.40;;;4.80;99.90;;;;;;6100428;22;1960026;-88
2023/12/20 07:57:49;;;;;;;0.40;0.40;;;4.80;99.90;;;;;;6147458;22;20213;-88
2023/12/20 08:00:46;;;;;;;0.40;0.40;;;4.80;99.90;;;;;;6257726;22;20190;-89
2023/12/20 08:05:52;;;;;;;0.50;0.50;;;4.70;99.90;;;;;;6168089;23;20212;-87
2023/12/20 08:11:00;;;;;;;0.50;0.50;;;4.80;99.90;;;;;;6220137;22;20248;-90
2023/12/20 08:24:21;;;;;;;0.90;0.90;;;4.80;99.90;;;;;;6250259;22;20247;-90
2023/12/20 08:27:07;;;;;;;0.40;0.40;;;4.80;99.90;;;;;;6289951;22;20241;-88
2023/12/20 08:35:11;;;;;;;0.50;0.50;;;4.80;99.90;;;;;;6244626;22;20414;-82
2023/12/20 08:43:07;;;;;;;0.30;0.30;;;4.90;99.90;;;;;;6165379;22;20153;-81
2023/12/20 08:45:34;;;;;;;0.40;0.40;;;4.80;99.90;;;;;;6251690;22;20219;-82
2023/12/20 08:48:09;;;;;;;0.50;0.50;;;4.80;99.90;;;;;;6330559;22;20166;-89
2023/12/20 08:51:09;;;;;;;;;;;;;;;;;;;;;
2023/12/20 08:53:46;;;;;;;0.45;0.45;;;4.90;99.90;;;;;;6304922;22;20174;-84
2023/12/20 08:56:20;;;;;;;0.32;0.32;;;4.90;99.90;;;;;;6296579;22;20193;-86
2023/12/20 08:59:02;;;;;;;0.30;0.30;;;4.90;99.90;;;;;;6271985;22;20188;-87
2023/12/20 09:01:35;;;;;;;0.50;0.50;;;4.90;99.90;;;;;;6324389;22;20193;-89
2023/12/20 09:04:22;;;;;;;0.30;0.30;;;5.10;99.90;;;;;;6294143;22;20386;-88
2023/12/20 09:06:52;;;;;;;0.45;0.45;;;4.90;99.90;;;;;;6320730;22;20162;-83
2023/12/20 09:12:16;;;;;;;0.75;0.75;;;5.00;99.90;;;;;;6211723;22;20193;-87
2023/12/20 09:14:53;;;;;;;0.40;0.40;;;5.00;99.90;;;;;;6177241;22;20200;-82
2023/12/20 09:20:09;;;;;;;0.40;0.40;;;5.00;99.90;;;;;;6288773;22;20206;-85
2023/12/20 09:22:39;;;;;;;0.30;0.30;;;5.00;99.90;;;;;;6320082;22;20170;-82
2023/12/20 09:25:06;;;;;;;0.38;0.38;;;5.00;99.90;;;;;;6320495;22;20202;-82
2023/12/20 09:27:36;;;;;;;0.45;0.45;;;5.00;99.90;;;;;;6320352;22;20718;-83
2023/12/20 09:30:39;;;;;;;0.52;0.52;;;5.00;99.90;;;;;;6303614;22;20221;-90
2023/12/20 09:33:22;;;;;;;0.40;0.40;;;5.10;99.90;;;;;;6270870;22;20178;-83
2023/12/20 09:36:05;;;;;;;0.40;0.40;;;5.20;99.90;;;;;;6324265;22;20198;-89
2023/12/20 09:38:54;;;;;;;0.40;0.40;;;5.30;99.90;;;;;;6323761;22;20150;-87
2023/12/20 09:49:36;;;;;;;0.40;0.40;;;5.40;99.90;;;;;;6290109;22;20202;-85
2023/12/20 09:52:35;;;;;;;0.85;0.85;;;5.50;99.90;;;;;;6228127;22;20429;-90
2023/12/20 10:00:31;;;;;;;0.60;0.60;;;5.70;99.90;;;;;;6291996;22;20214;-88
2023/12/20 10:03:07;;;;;;;0.40;0.40;;;5.60;99.90;;;;;;6309231;22;20163;-86
2023/12/20 10:08:26;;;;;;;0.50;0.50;;;5.60;99.90;;;;;;6207290;22;20209;-86
2023/12/20 10:13:42;;;;;;;0.50;0.50;;;5.60;99.90;;;;;;6243897;22;20206;-87
2023/12/20 10:16:14;;;;;;;1.27;1.17;;;5.60;99.90;;;;;;6334299;22;20166;-85
2023/12/20 10:18:42;;;;;;;0.70;0.70;;;5.70;99.90;;;;;;6332763;22;20162;-86
2023/12/20 10:21:12;;;;;;;0.40;0.40;;;5.60;99.90;;;;;;6331704;22;20201;-87
2023/12/20 10:26:24;;;;;;;0.47;0.47;;;5.60;99.90;;;;;;6163501;23;20170;-84
2023/12/20 10:29:00;;;;;;;1.95;1.85;;;5.50;99.90;;;;;;6139481;23;20154;-87
2023/12/20 10:31:32;;;;;;;0.50;0.50;;;5.60;99.90;;;;;;6160658;23;20166;-88
2023/12/20 10:34:12;;;;;;;0.60;0.60;;;5.50;99.90;;;;;;6161760;23;20170;-89
2023/12/20 10:36:39;;;;;;;0.50;0.50;;;5.50;99.90;;;;;;6169245;22;20359;-84
2023/12/20 10:39:09;;;;;;;0.40;0.40;;;5.40;99.90;;;;;;6178273;22;20213;-87
2023/12/20 10:41:41;;;;;;;0.40;0.40;;;5.30;99.90;;;;;;6153822;22;20178;-82
2023/12/20 10:44:13;;;;;;;0.40;0.40;;;5.30;99.90;;;;;;6178458;22;20173;-84
2023/12/20 10:46:47;;;;;;;0.60;0.60;;;5.40;99.90;;;;;;6178591;22;20166;-85
2023/12/20 10:49:18;;;;;;;0.60;0.60;;;5.20;99.90;;;;;;6176688;22;20177;-86
2023/12/20 10:51:57;;;;;;;0.40;0.40;;;5.10;99.90;;;;;;6168566;23;20170;-87
2023/12/20 10:54:27;;;;;;;0.70;0.70;;;5.10;99.90;;;;;;6139087;22;20158;-88
2023/12/20 10:57:02;;;;;;;0.70;0.70;;;5.10;99.90;;;;;;6162839;23;20720;-86
2023/12/20 10:59:33;;;;;;;1.58;1.48;;;5.30;99.90;;;;;;6163173;23;20519;-87
2023/12/20 11:02:05;;;;;;;0.40;0.40;;;5.50;99.90;;;;;;6162174;23;20229;-87
2023/12/20 11:04:44;;;;;;;1.30;1.20;;;5.60;99.90;;;;;;6135914;23;20162;-86
2023/12/20 11:07:56;;;;;;;0.40;0.40;;;6.00;99.90;;;;;;6137605;23;20158;-88
2023/12/20 11:10:46;;;;;;;0.40;0.40;;;5.70;99.90;;;;;;6194159;23;20192;-86
2023/12/20 11:13:21;;;;;;;2.35;1.40;;;5.70;99.90;;;;;;6159178;23;20180;-82
2023/12/20 11:15:48;;;;;;;0.40;0.40;;;5.60;99.90;;;;;;6159722;23;20183;-85
2023/12/20 11:18:17;;;;;;;0.40;0.40;;;5.70;99.90;;;;;;6159014;23;20214;-84
2023/12/20 11:20:44;;;;;;;0.95;0.95;;;5.70;99.90;;;;;;6158180;23;20198;-87
2023/12/20 11:23:12;;;;;;;0.60;0.60;;;5.90;99.90;;;;;;6158167;23;20478;-85
2023/12/20 11:25:54;;;;;;;0.50;0.50;;;5.90;99.90;;;;;;6158346;23;20186;-85
2023/12/20 11:28:24;;;;;;;0.50;0.50;;;6.00;99.90;;;;;;6135190;23;20193;-85
2023/12/20 11:30:59;;;;;;;0.40;0.40;;;6.30;99.90;;;;;;6159028;23;20170;-82
2023/12/20 11:33:39;;;;;;;0.60;0.60;;;6.60;99.90;;;;;;6159786;23;20587;-87
2023/12/20 11:36:15;;;;;;;0.47;0.47;;;6.80;99.90;;;;;;6135697;23;20169;-84
2023/12/20 11:38:58;;;;;;;3.35;1.33;;;6.90;99.90;;;;;;6157578;22;20190;-86
2023/12/20 11:41:26;;;;;;;0.60;0.60;;;7.10;99.90;;;;;;6157641;23;20216;-83
2023/12/20 11:43:54;;;;;;;0.50;0.50;;;6.80;99.90;;;;;;6157437;23;20178;-83
2023/12/20 11:46:22;;;;;;;1.10;1.10;;;6.70;99.90;;;;;;6158150;23;20478;-85
2023/12/20 11:48:51;;;;;;;0.60;0.60;;;6.70;99.90;;;;;;6158723;23;20204;-87
2023/12/20 11:51:18;;;;;;;0.50;0.50;;;6.70;99.90;;;;;;6166470;23;20174;-88
2023/12/20 11:53:57;;;;;;;1.05;0.95;;;6.80;99.90;;;;;;6167721;23;20177;-87
2023/12/20 11:56:26;;;;;;;0.50;0.50;;;6.80;99.90;;;;;;6141675;23;20193;-85
2023/12/20 11:59:00;;;;;;;0.63;0.63;;;6.70;99.90;;;;;;6138576;23;20501;-86
2023/12/20 12:01:52;;;;;;;1.33;1.23;;;6.60;99.90;;;;;;6142930;23;20186;-85
2023/12/20 12:04:19;;;;;;;0.63;0.63;;;6.60;99.90;;;;;;6163087;23;20186;-86
2023/12/20 12:06:49;;;;;;;19.05;2.70;;;6.70;99.90;;;;;;6161623;23;20190;-86
2023/12/20 12:09:17;;;;;;;0.50;0.50;;;6.80;99.90;;;;;;6161143;23;20218;-86
2023/12/20 12:11:45;;;;;;;0.50;0.50;;;6.70;99.90;;;;;;6111514;23;20233;-87
2023/12/20 12:14:16;;;;;;;0.70;0.70;;;6.70;99.90;;;;;;6160111;23;20186;-84
2023/12/20 12:16:53;;;;;;;0.50;0.50;;;6.70;99.90;;;;;;6159889;23;20236;-88
2023/12/20 12:19:24;;;;;;;0.50;0.50;;;6.60;99.90;;;;;;6136197;23;20166;-88
2023/12/20 12:22:12;;;;;;;0.50;0.50;;;6.60;99.90;;;;;;6160897;23;20185;-87
2023/12/20 12:24:44;;;;;;;0.50;0.50;;;6.50;99.90;;;;;;6135086;23;20394;-86
2023/12/20 12:27:32;;;;;;;0.50;0.50;;;6.50;99.90;;;;;;6159836;23;20355;-89
2023/12/20 12:30:03;;;;;;;0.90;0.90;;;6.50;99.90;;;;;;6133472;23;20178;-87
2023/12/20 12:32:33;;;;;;;0.50;0.50;;;6.50;99.90;;;;;;6134962;23;20188;-85
2023/12/20 12:35:08;;;;;;;0.60;0.60;;;6.40;99.90;;;;;;6160574;23;20191;-86
2023/12/20 12:37:41;;;;;;;0.52;0.52;;;6.40;99.90;;;;;;6158873;23;20201;-85
2023/12/20 12:40:17;;;;;;;0.50;0.50;;;6.40;99.90;;;;;;6159694;23;20178;-86
2023/12/20 12:42:45;;;;;;;0.85;0.85;;;6.40;99.90;;;;;;6135327;23;20165;-83
2023/12/20 12:45:14;;;;;;;1.23;1.23;;;6.40;99.90;;;;;;6112534;23;20391;-88
2023/12/20 12:47:46;;;;;;;0.60;0.60;;;6.40;99.90;;;;;;6159741;23;20181;-85
2023/12/20 12:50:14;;;;;;;2.45;2.35;;;6.40;99.90;;;;;;6138840;23;20193;-86
2023/12/20 12:52:41;;;;;;;0.50;0.50;;;6.50;99.90;;;;;;6160409;23;20286;-87
2023/12/20 12:55:10;;;;;;;0.60;0.60;;;6.40;99.90;;;;;;6160676;23;20189;-88
2023/12/20 12:57:37;;;;;;;0.50;0.50;;;6.40;99.90;;;;;;6159415;22;20191;-87
2023/12/20 13:00:09;;;;;;;0.50;0.50;;;6.30;99.90;;;;;;6158711;23;20198;-86
2023/12/20 13:02:37;;;;;;;0.50;0.50;;;6.40;99.90;;;;;;6134224;23;20201;-89
2023/12/20 13:05:07;;;;;;;0.40;0.40;;;6.40;99.90;;;;;;6157575;23;20231;-84
2023/12/20 13:07:39;;;;;;;0.40;0.40;;;6.40;99.90;;;;;;6168480;22;20162;-84
2023/12/20 13:10:11;;;;;;;0.50;0.50;;;6.40;99.90;;;;;;6177541;22;20155;-86
2023/12/20 13:12:40;;;;;;;0.50;0.50;;;6.30;99.90;;;;;;6137874;23;20172;-86
2023/12/20 13:15:13;;;;;;;0.50;0.50;;;6.10;99.90;;;;;;6158078;23;20197;-87
2023/12/20 13:17:41;;;;;;;0.80;0.80;;;6.10;99.90;;;;;;6163852;23;20205;-84
2023/12/20 13:20:10;;;;;;;0.50;0.50;;;6.10;99.90;;;;;;6168134;22;20501;-87
2023/12/20 13:22:37;;;;;;;0.50;0.50;;;6.10;99.90;;;;;;6169986;22;20190;-88
2023/12/20 13:25:06;;;;;;;0.50;0.50;;;6.30;99.90;;;;;;6164350;23;20185;-83
2023/12/20 13:27:35;;;;;;;0.50;0.50;;;6.20;99.90;;;;;;6161175;23;20181;-87
2023/12/20 13:30:07;;;;;;;0.50;0.50;;;6.30;99.90;;;;;;6134749;23;20166;-84
2023/12/20 13:32:34;;;;;;;0.65;0.65;;;6.30;99.90;;;;;;6163167;23;20208;-84
2023/12/20 13:35:04;;;;;;;0.50;0.50;;;6.20;99.90;;;;;;6137477;23;20205;-88
2023/12/20 13:37:32;;;;;;;1.25;1.15;;;6.20;99.90;;;;;;6137578;23;20208;-86
2023/12/20 13:40:02;;;;;;;0.50;0.50;;;6.30;99.90;;;;;;6160740;23;20219;-84
2023/12/20 13:42:30;;;;;;;0.60;0.60;;;6.30;99.90;;;;;;6160330;23;20209;-87
2023/12/20 13:44:58;;;;;;;0.70;0.70;;;6.30;99.90;;;;;;6113141;23;20182;-85
2023/12/20 13:47:25;;;;;;;0.50;0.50;;;6.30;99.90;;;;;;6139016;23;20165;-87
2023/12/20 13:50:00;;;;;;;0.55;0.55;;;6.40;99.90;;;;;;6170401;22;20170;-86
2023/12/20 13:52:27;;;;;;;0.60;0.60;;;6.30;99.90;;;;;;6168778;22;20198;-86
2023/12/20 13:54:55;;;;;;;0.50;0.50;;;6.20;99.90;;;;;;6166168;22;20173;-85
2023/12/20 13:57:22;;;;;;;0.50;0.50;;;6.20;99.90;;;;;;6166109;23;20190;-86
2023/12/20 14:00:14;;;;;;;0.50;0.50;;;6.20;99.90;;;;;;6165699;22;20678;-89
2023/12/20 14:02:57;;;;;;;1.50;1.40;;;6.20;99.90;;;;;;6161343;23;20211;-86
2023/12/20 14:05:25;;;;;;;0.82;0.82;;;6.20;99.90;;;;;;6162046;23;20230;-83
2023/12/20 14:08:03;;;;;;;0.50;0.50;;;6.20;99.90;;;;;;6161723;23;20692;-88
2023/12/20 14:10:30;;;;;;;0.60;0.60;;;6.20;99.90;;;;;;6162307;23;20179;-88
2023/12/20 14:13:00;;;;;;;0.50;0.50;;;6.20;99.90;;;;;;6139915;23;20236;-87
2023/12/20 14:15:28;;;;;;;0.50;0.50;;;6.20;99.90;;;;;;6164785;23;20180;-88
2023/12/20 14:17:55;;;;;;;0.52;0.52;;;6.20;99.90;;;;;;6161984;23;20177;-88
2023/12/20 14:20:27;;;;;;;2.97;2.70;;;6.20;99.90;;;;;;6164762;23;20181;-88
2023/12/20 14:23:02;;;;;;;0.60;0.60;;;6.20;99.90;;;;;;6165540;23;20185;-84
2023/12/20 14:25:31;;;;;;;0.50;0.50;;;6.20;99.90;;;;;;6163301;22;20186;-86
2023/12/20 14:28:14;;;;;;;0.50;0.50;;;6.20;99.90;;;;;;6167745;23;20166;-86
2023/12/20 14:30:44;;;;;;;0.40;0.40;;;6.10;99.90;;;;;;6138494;23;20181;-86
2023/12/20 14:33:12;;;;;;;0.50;0.50;;;6.00;99.90;;;;;;6160992;23;20189;-87
2023/12/20 14:35:40;;;;;;;0.95;0.95;;;6.10;99.90;;;;;;6164123;23;20507;-90
2023/12/20 14:38:15;;;;;;;0.50;0.50;;;6.10;99.90;;;;;;6165147;23;20154;-89
2023/12/20 14:40:43;;;;;;;0.50;0.50;;;6.00;99.90;;;;;;6146649;22;20434;-87
2023/12/20 14:43:13;;;;;;;0.47;0.47;;;6.00;99.90;;;;;;6176724;22;20221;-82
2023/12/20 14:45:45;;;;;;;0.45;0.45;;;6.00;99.90;;;;;;6177645;22;20154;-85
2023/12/20 14:48:13;;;;;;;0.40;0.40;;;6.00;99.90;;;;;;6175928;22;20182;-90
2023/12/20 14:50:43;;;;;;;0.50;0.50;;;6.00;99.90;;;;;;6164368;23;20190;-90
2023/12/20 14:53:10;;;;;;;0.40;0.40;;;6.10;99.90;;;;;;6163937;23;20401;-88
2023/12/20 14:55:39;;;;;;;0.40;0.40;;;6.10;99.90;;;;;;6136727;23;20174;-87
2023/12/20 14:58:22;;;;;;;0.40;0.40;;;6.10;99.90;;;;;;6163080;23;20193;-90
2023/12/20 15:00:53;;;;;;;0.40;0.40;;;6.00;99.90;;;;;;6164841;23;20162;-87
2023/12/20 15:03:26;;;;;;;0.50;0.50;;;6.00;99.90;;;;;;6140784;23;20173;-89
2023/12/20 15:05:58;;;;;;;1.25;1.25;;;6.00;99.90;;;;;;6144260;23;20162;-85
2023/12/20 15:08:26;;;;;;;9.50;2.35;;;5.90;99.90;;;;;;6177551;22;20193;-85
2023/12/20 15:11:13;;;;;;;0.80;0.80;;;6.00;99.90;;;;;;6177682;22;20166;-85
2023/12/20 15:13:55;;;;;;;0.60;0.60;;;6.00;99.90;;;;;;6176512;22;20277;-86
2023/12/20 15:16:36;;;;;;;1.13;1.13;;;6.00;99.90;;;;;;6170464;22;20229;-89
2023/12/20 15:19:06;;;;;;;0.50;0.50;;;6.00;99.90;;;;;;6165309;23;20166;-89
2023/12/20 15:21:40;;;;;;;0.40;0.40;;;6.00;99.90;;;;;;6163943;23;20206;-84
2023/12/20 15:24:19;;;;;;;1.05;1.05;;;6.20;99.90;;;;;;6164117;23;20174;-87
2023/12/20 15:26:51;;;;;;;0.77;0.77;;;6.00;99.90;;;;;;6163311;23;20182;-88
2023/12/20 15:29:19;;;;;;;0.50;0.50;;;5.90;99.90;;;;;;6163583;22;20197;-89
2023/12/20 15:31:57;;;;;;;0.50;0.50;;;5.90;99.90;;;;;;6164706;22;20207;-86
2023/12/20 15:34:31;;;;;;;2.22;1.30;;;5.80;99.90;;;;;;6151959;22;20154;-87
2023/12/20 15:36:59;;;;;;;0.60;0.60;;;5.80;99.90;;;;;;6170325;22;20204;-89
2023/12/20 15:39:28;;;;;;;0.47;0.47;;;5.50;99.90;;;;;;6161841;23;20184;-85
2023/12/20 15:41:55;;;;;;;0.50;0.50;;;5.20;99.90;;;;;;6138046;23;20189;-89
2023/12/20 15:44:24;;;;;;;0.70;0.70;;;5.20;99.90;;;;;;6161880;23;20174;-87
2023/12/20 15:47:15;;;;;;;1.30;1.30;;;5.10;99.90;;;;;;6165099;23;20321;-88
2023/12/20 15:49:57;;;;;;;1.05;1.05;;;5.20;99.90;;;;;;6162318;23;20178;-86
2023/12/20 15:52:32;;;;;;;1.48;1.48;;;5.30;99.90;;;;;;6115302;23;20177;-86
2023/12/20 15:54:59;;;;;;;0.55;0.55;;;5.30;99.90;;;;;;6138349;23;20185;-90
2023/12/20 15:57:26;;;;;;;0.50;0.50;;;5.50;99.90;;;;;;6164499;23;20186;-88
2023/12/20 16:00:11;;;;;;;0.80;0.80;;;5.50;99.90;;;;;;6166750;22;20192;-86
2023/12/20 16:02:38;;;;;;;0.50;0.50;;;5.50;99.90;;;;;;6169972;22;20245;-85
2023/12/20 16:05:08;;;;;;;0.60;0.60;;;5.40;99.90;;;;;;6262448;22;20213;-86
2023/12/20 16:07:36;;;;;;;0.68;0.68;;;5.40;99.90;;;;;;6300735;22;20193;-85
2023/12/20 16:10:08;;;;;;;0.68;0.68;;;5.30;99.90;;;;;;6327416;22;20178;-86
2023/12/20 16:12:35;;;;;;;1.52;1.42;;;5.30;99.90;;;;;;6325350;22;20170;-85
2023/12/20 16:15:04;;;;;;;0.88;0.88;;;5.40;99.90;;;;;;6324371;22;20253;-86
2023/12/20 16:20:09;;;;;;;0.68;0.68;;;5.40;99.90;;;;;;6310940;22;20255;-88
2023/12/20 16:22:38;;;;;;;0.50;0.50;;;5.40;99.90;;;;;;6318349;22;20787;-87
2023/12/20 16:25:06;;;;;;;1.52;1.50;;;5.50;99.90;;;;;;6322538;22;20170;-86
2023/12/20 16:27:33;;;;;;;0.70;0.70;;;5.50;99.90;;;;;;6315631;22;20181;-86
2023/12/20 16:30:04;;;;;;;0.50;0.50;;;5.50;99.90;;;;;;6320680;22;20193;-86
2023/12/20 16:35:11;;;;;;;0.75;0.75;;;5.50;99.90;;;;;;6169253;22;20172;-83
2023/12/20 16:37:42;;;;;;;0.50;0.50;;;5.50;99.90;;;;;;6169998;22;20229;-87
2023/12/20 16:40:13;;;;;;;0.50;0.50;;;5.70;99.90;;;;;;6167852;22;20188;-88
2023/12/20 16:42:43;;;;;;;2.25;2.15;;;5.70;99.90;;;;;;6168765;22;20189;-89
2023/12/20 16:45:13;;;;;;;1.33;1.23;;;5.70;99.90;;;;;;6165750;23;20184;-86
2023/12/20 16:50:17;;;;;;;0.88;0.88;;;5.70;99.90;;;;;;6322213;22;20248;-84